sensor_id;sensor_type;location;lat;lon;timestamp;temperature;humidity
47861;HTU21D;33620;52.340;5.984;2023-07-29T00:00:19;19.41;84.96
47861;HTU21D;33620;52.340;5.984;2023-07-29T00:02:45;19.38;84.89
47861;HTU21D;33620;52.340;5.984;2023-07-29T00:05:11;19.35;84.96
47861;HTU21D;33620;52.340;5.984;2023-07-29T00:07:36;19.31;85.00
47861;HTU21D;33620;52.340;5.984;2023-07-29T00:10:02;19.26;85.06
47861;HTU21D;33620;52.340;5.984;2023-07-29T00:12:28;19.21;85.50
47861;HTU21D;33620;52.340;5.984;2023-07-29T00:14:54;19.18;85.55
47861;HTU21D;33620;52.340;5.984;2023-07-29T00:17:19;19.13;85.84
47861;HTU21D;33620;52.340;5.984;2023-07-29T00:19:45;19.09;85.94
47861;HTU21D;33620;52.340;5.984;2023-07-29T00:22:11;19.08;86.06
47861;HTU21D;33620;52.340;5.984;2023-07-29T00:24:36;19.08;86.06
47861;HTU21D;33620;52.340;5.984;2023-07-29T00:27:01;19.11;85.87
47861;HTU21D;33620;52.340;5.984;2023-07-29T00:29:27;19.11;85.57
47861;HTU21D;33620;52.340;5.984;2023-07-29T00:31:52;19.09;85.38
47861;HTU21D;33620;52.340;5.984;2023-07-29T00:34:18;19.08;85.33
47861;HTU21D;33620;52.340;5.984;2023-07-29T00:36:45;19.09;85.18
47861;HTU21D;33620;52.340;5.984;2023-07-29T00:39:11;19.10;85.08
47861;HTU21D;33620;52.340;5.984;2023-07-29T00:41:36;19.10;84.97
47861;HTU21D;33620;52.340;5.984;2023-07-29T00:44:02;19.07;84.92
47861;HTU21D;33620;52.340;5.984;2023-07-29T00:46:28;19.06;84.86
47861;HTU21D;33620;52.340;5.984;2023-07-29T00:48:54;19.02;84.66
47861;HTU21D;33620;52.340;5.984;2023-07-29T00:51:19;18.99;84.64
47861;HTU21D;33620;52.340;5.984;2023-07-29T00:53:45;18.95;84.64
47861;HTU21D;33620;52.340;5.984;2023-07-29T00:56:11;18.93;84.67
47861;HTU21D;33620;52.340;5.984;2023-07-29T00:58:36;18.91;84.71
47861;HTU21D;33620;52.340;5.984;2023-07-29T01:01:02;18.88;84.76
47861;HTU21D;33620;52.340;5.984;2023-07-29T01:03:27;18.91;84.90
47861;HTU21D;33620;52.340;5.984;2023-07-29T01:05:59;18.91;84.89
47861;HTU21D;33620;52.340;5.984;2023-07-29T01:08:37;18.87;84.57
47861;HTU21D;33620;52.340;5.984;2023-07-29T01:13:53;18.82;84.38
47861;HTU21D;33620;52.340;5.984;2023-07-29T01:16:34;18.80;84.78
47861;HTU21D;33620;52.340;5.984;2023-07-29T01:19:05;18.79;84.50
47861;HTU21D;33620;52.340;5.984;2023-07-29T01:21:35;18.77;84.24
47861;HTU21D;33620;52.340;5.984;2023-07-29T01:24:01;18.74;84.60
47861;HTU21D;33620;52.340;5.984;2023-07-29T01:26:26;18.73;84.42
47861;HTU21D;33620;52.340;5.984;2023-07-29T01:28:55;18.63;84.24
47861;HTU21D;33620;52.340;5.984;2023-07-29T01:31:33;18.55;85.27
47861;HTU21D;33620;52.340;5.984;2023-07-29T01:34:17;18.58;85.63
47861;HTU21D;33620;52.340;5.984;2023-07-29T01:36:44;18.58;85.42
47861;HTU21D;33620;52.340;5.984;2023-07-29T01:39:11;18.62;85.65
47861;HTU21D;33620;52.340;5.984;2023-07-29T01:41:37;18.66;85.38
47861;HTU21D;33620;52.340;5.984;2023-07-29T01:44:03;18.64;85.65
47861;HTU21D;33620;52.340;5.984;2023-07-29T01:46:29;18.65;85.41
47861;HTU21D;33620;52.340;5.984;2023-07-29T01:48:54;18.64;85.19
47861;HTU21D;33620;52.340;5.984;2023-07-29T01:51:20;18.62;85.30
47861;HTU21D;33620;52.340;5.984;2023-07-29T01:53:46;18.58;85.28
47861;HTU21D;33620;52.340;5.984;2023-07-29T01:56:11;18.58;85.05
47861;HTU21D;33620;52.340;5.984;2023-07-29T01:58:37;18.53;85.11
47861;HTU21D;33620;52.340;5.984;2023-07-29T02:01:02;18.55;85.14
47861;HTU21D;33620;52.340;5.984;2023-07-29T02:03:28;18.54;85.28
47861;HTU21D;33620;52.340;5.984;2023-07-29T02:05:53;18.52;85.07
47861;HTU21D;33620;52.340;5.984;2023-07-29T02:08:18;18.51;85.26
47861;HTU21D;33620;52.340;5.984;2023-07-29T02:10:44;18.56;85.48
47861;HTU21D;33620;52.340;5.984;2023-07-29T02:13:10;18.56;85.10
47861;HTU21D;33620;52.340;5.984;2023-07-29T02:15:36;18.55;85.09
47861;HTU21D;33620;52.340;5.984;2023-07-29T02:18:01;18.56;85.38
47861;HTU21D;33620;52.340;5.984;2023-07-29T02:20:28;18.58;85.35
47861;HTU21D;33620;52.340;5.984;2023-07-29T02:22:53;18.57;85.02
47861;HTU21D;33620;52.340;5.984;2023-07-29T02:25:19;18.55;85.28
47861;HTU21D;33620;52.340;5.984;2023-07-29T02:27:45;18.57;85.45
47861;HTU21D;33620;52.340;5.984;2023-07-29T02:30:11;18.61;85.55
47861;HTU21D;33620;52.340;5.984;2023-07-29T02:32:37;18.61;85.16
47861;HTU21D;33620;52.340;5.984;2023-07-29T02:35:03;18.58;85.54
47861;HTU21D;33620;52.340;5.984;2023-07-29T02:37:30;18.62;85.61
47861;HTU21D;33620;52.340;5.984;2023-07-29T02:39:55;18.66;85.70
47861;HTU21D;33620;52.340;5.984;2023-07-29T02:42:20;18.69;85.56
47861;HTU21D;33620;52.340;5.984;2023-07-29T02:44:46;18.72;85.39
47861;HTU21D;33620;52.340;5.984;2023-07-29T02:47:12;18.73;85.46
47861;HTU21D;33620;52.340;5.984;2023-07-29T02:49:37;18.73;85.26
47861;HTU21D;33620;52.340;5.984;2023-07-29T02:52:02;18.73;85.42
47861;HTU21D;33620;52.340;5.984;2023-07-29T02:54:28;18.70;85.05
47861;HTU21D;33620;52.340;5.984;2023-07-29T02:56:53;18.67;85.52
47861;HTU21D;33620;52.340;5.984;2023-07-29T02:59:19;18.69;85.85
47861;HTU21D;33620;52.340;5.984;2023-07-29T03:01:45;18.71;85.83
47861;HTU21D;33620;52.340;5.984;2023-07-29T03:04:10;18.74;85.82
47861;HTU21D;33620;52.340;5.984;2023-07-29T03:06:38;18.76;85.87
47861;HTU21D;33620;52.340;5.984;2023-07-29T03:09:03;18.78;85.85
47861;HTU21D;33620;52.340;5.984;2023-07-29T03:11:30;18.76;85.61
47861;HTU21D;33620;52.340;5.984;2023-07-29T03:13:56;18.76;85.93
47861;HTU21D;33620;52.340;5.984;2023-07-29T03:16:22;18.76;85.93
47861;HTU21D;33620;52.340;5.984;2023-07-29T03:18:48;18.78;85.96
47861;HTU21D;33620;52.340;5.984;2023-07-29T03:21:14;18.74;85.85
47861;HTU21D;33620;52.340;5.984;2023-07-29T03:23:39;18.73;86.09
47861;HTU21D;33620;52.340;5.984;2023-07-29T03:26:04;18.76;86.11
47861;HTU21D;33620;52.340;5.984;2023-07-29T03:28:37;18.73;85.96
47861;HTU21D;33620;52.340;5.984;2023-07-29T03:31:03;18.72;85.97
47861;HTU21D;33620;52.340;5.984;2023-07-29T03:33:28;18.68;86.02
47861;HTU21D;33620;52.340;5.984;2023-07-29T03:35:54;18.65;86.11
47861;HTU21D;33620;52.340;5.984;2023-07-29T03:38:20;18.64;86.06
47861;HTU21D;33620;52.340;5.984;2023-07-29T03:40:45;18.64;86.13
47861;HTU21D;33620;52.340;5.984;2023-07-29T03:43:11;18.62;86.21
47861;HTU21D;33620;52.340;5.984;2023-07-29T03:45:36;18.62;86.31
47861;HTU21D;33620;52.340;5.984;2023-07-29T03:48:03;18.59;86.29
47861;HTU21D;33620;52.340;5.984;2023-07-29T03:50:30;18.59;86.24
47861;HTU21D;33620;52.340;5.984;2023-07-29T03:52:56;18.59;86.25
47861;HTU21D;33620;52.340;5.984;2023-07-29T03:55:22;18.55;86.33
47861;HTU21D;33620;52.340;5.984;2023-07-29T03:57:48;18.53;86.38
47861;HTU21D;33620;52.340;5.984;2023-07-29T04:00:13;18.54;86.48
47861;HTU21D;33620;52.340;5.984;2023-07-29T04:02:39;18.53;86.56
47861;HTU21D;33620;52.340;5.984;2023-07-29T04:05:05;18.52;86.59
47861;HTU21D;33620;52.340;5.984;2023-07-29T04:07:32;18.50;86.53
47861;HTU21D;33620;52.340;5.984;2023-07-29T04:09:58;18.49;86.79
47861;HTU21D;33620;52.340;5.984;2023-07-29T04:12:24;18.49;86.81
47861;HTU21D;33620;52.340;5.984;2023-07-29T04:14:49;18.50;86.86
47861;HTU21D;33620;52.340;5.984;2023-07-29T04:17:15;18.48;86.90
47861;HTU21D;33620;52.340;5.984;2023-07-29T04:19:40;18.52;87.09
47861;HTU21D;33620;52.340;5.984;2023-07-29T04:22:06;18.53;86.93
47861;HTU21D;33620;52.340;5.984;2023-07-29T04:24:31;18.52;86.95
47861;HTU21D;33620;52.340;5.984;2023-07-29T04:26:57;18.51;87.01
47861;HTU21D;33620;52.340;5.984;2023-07-29T04:29:22;18.49;87.15
47861;HTU21D;33620;52.340;5.984;2023-07-29T04:31:49;18.49;87.17
47861;HTU21D;33620;52.340;5.984;2023-07-29T04:34:14;18.49;87.05
47861;HTU21D;33620;52.340;5.984;2023-07-29T04:36:40;18.46;86.96
47861;HTU21D;33620;52.340;5.984;2023-07-29T04:39:05;18.43;87.11
47861;HTU21D;33620;52.340;5.984;2023-07-29T04:41:31;18.43;87.15
47861;HTU21D;33620;52.340;5.984;2023-07-29T04:43:56;18.43;87.22
47861;HTU21D;33620;52.340;5.984;2023-07-29T04:46:22;18.43;87.05
47861;HTU21D;33620;52.340;5.984;2023-07-29T04:48:47;18.40;86.79
47861;HTU21D;33620;52.340;5.984;2023-07-29T04:51:12;18.40;87.12
47861;HTU21D;33620;52.340;5.984;2023-07-29T04:53:38;18.37;87.10
47861;HTU21D;33620;52.340;5.984;2023-07-29T04:56:03;18.36;87.06
47861;HTU21D;33620;52.340;5.984;2023-07-29T04:58:29;18.34;86.85
47861;HTU21D;33620;52.340;5.984;2023-07-29T05:00:55;18.29;87.15
47861;HTU21D;33620;52.340;5.984;2023-07-29T05:03:21;18.29;87.19
47861;HTU21D;33620;52.340;5.984;2023-07-29T05:05:46;18.27;86.91
47861;HTU21D;33620;52.340;5.984;2023-07-29T05:08:12;18.24;87.21
47861;HTU21D;33620;52.340;5.984;2023-07-29T05:10:37;18.22;87.40
47861;HTU21D;33620;52.340;5.984;2023-07-29T05:13:03;18.22;87.41
47861;HTU21D;33620;52.340;5.984;2023-07-29T05:15:28;18.18;87.36
47861;HTU21D;33620;52.340;5.984;2023-07-29T05:17:53;18.19;87.41
47861;HTU21D;33620;52.340;5.984;2023-07-29T05:20:19;18.17;87.42
47861;HTU21D;33620;52.340;5.984;2023-07-29T05:22:44;18.09;87.36
47861;HTU21D;33620;52.340;5.984;2023-07-29T05:25:09;18.04;87.58
47861;HTU21D;33620;52.340;5.984;2023-07-29T05:27:35;18.04;87.69
47861;HTU21D;33620;52.340;5.984;2023-07-29T05:30:00;18.05;87.78
47861;HTU21D;33620;52.340;5.984;2023-07-29T05:32:26;18.06;87.48
47861;HTU21D;33620;52.340;5.984;2023-07-29T05:34:51;18.07;87.47
47861;HTU21D;33620;52.340;5.984;2023-07-29T05:37:17;18.05;87.39
47861;HTU21D;33620;52.340;5.984;2023-07-29T05:39:42;18.04;87.47
47861;HTU21D;33620;52.340;5.984;2023-07-29T05:42:07;18.09;87.54
47861;HTU21D;33620;52.340;5.984;2023-07-29T05:44:33;18.09;87.04
47861;HTU21D;33620;52.340;5.984;2023-07-29T05:46:58;18.09;87.16
47861;HTU21D;33620;52.340;5.984;2023-07-29T05:49:24;18.12;86.93
47861;HTU21D;33620;52.340;5.984;2023-07-29T05:51:49;18.10;86.75
47861;HTU21D;33620;52.340;5.984;2023-07-29T05:54:18;18.11;86.86
47861;HTU21D;33620;52.340;5.984;2023-07-29T05:56:43;18.09;86.92
47861;HTU21D;33620;52.340;5.984;2023-07-29T05:59:09;18.07;87.21
47861;HTU21D;33620;52.340;5.984;2023-07-29T06:01:34;18.09;87.38
47861;HTU21D;33620;52.340;5.984;2023-07-29T06:04:00;18.12;87.09
47861;HTU21D;33620;52.340;5.984;2023-07-29T06:06:26;18.15;87.09
47861;HTU21D;33620;52.340;5.984;2023-07-29T06:08:51;18.17;86.86
47861;HTU21D;33620;52.340;5.984;2023-07-29T06:11:17;18.23;86.87
47861;HTU21D;33620;52.340;5.984;2023-07-29T06:13:42;18.24;86.57
47861;HTU21D;33620;52.340;5.984;2023-07-29T06:16:08;18.27;86.30
47861;HTU21D;33620;52.340;5.984;2023-07-29T06:18:33;18.25;86.20
47861;HTU21D;33620;52.340;5.984;2023-07-29T06:20:58;18.25;86.15
47861;HTU21D;33620;52.340;5.984;2023-07-29T06:23:24;18.28;86.13
47861;HTU21D;33620;52.340;5.984;2023-07-29T06:25:49;18.34;86.41
47861;HTU21D;33620;52.340;5.984;2023-07-29T06:28:15;18.35;86.14
47861;HTU21D;33620;52.340;5.984;2023-07-29T06:30:40;18.35;86.06
47861;HTU21D;33620;52.340;5.984;2023-07-29T06:33:05;18.33;85.58
47861;HTU21D;33620;52.340;5.984;2023-07-29T06:35:31;18.32;85.91
47861;HTU21D;33620;52.340;5.984;2023-07-29T06:37:56;18.36;86.38
47861;HTU21D;33620;52.340;5.984;2023-07-29T06:40:22;18.36;86.30
47861;HTU21D;33620;52.340;5.984;2023-07-29T06:42:47;18.34;86.27
47861;HTU21D;33620;52.340;5.984;2023-07-29T06:45:13;18.41;86.46
47861;HTU21D;33620;52.340;5.984;2023-07-29T06:47:38;18.42;86.47
47861;HTU21D;33620;52.340;5.984;2023-07-29T06:50:04;18.48;86.55
47861;HTU21D;33620;52.340;5.984;2023-07-29T06:52:30;18.59;86.41
47861;HTU21D;33620;52.340;5.984;2023-07-29T06:54:55;18.64;85.71
47861;HTU21D;33620;52.340;5.984;2023-07-29T06:57:20;18.70;85.90
47861;HTU21D;33620;52.340;5.984;2023-07-29T06:59:46;18.77;85.85
47861;HTU21D;33620;52.340;5.984;2023-07-29T07:02:11;18.79;85.12
47861;HTU21D;33620;52.340;5.984;2023-07-29T07:04:37;18.83;84.98
47861;HTU21D;33620;52.340;5.984;2023-07-29T07:07:02;18.89;84.89
47861;HTU21D;33620;52.340;5.984;2023-07-29T07:09:27;19.01;84.83
47861;HTU21D;33620;52.340;5.984;2023-07-29T07:11:53;19.07;84.93
47861;HTU21D;33620;52.340;5.984;2023-07-29T07:14:18;19.10;84.68
47861;HTU21D;33620;52.340;5.984;2023-07-29T07:16:44;19.20;84.64
47861;HTU21D;33620;52.340;5.984;2023-07-29T07:19:10;19.16;83.45
47861;HTU21D;33620;52.340;5.984;2023-07-29T07:21:35;19.17;83.14
47861;HTU21D;33620;52.340;5.984;2023-07-29T07:24:01;19.21;83.80
47861;HTU21D;33620;52.340;5.984;2023-07-29T07:26:26;19.28;83.23
47861;HTU21D;33620;52.340;5.984;2023-07-29T07:28:52;19.33;83.73
47861;HTU21D;33620;52.340;5.984;2023-07-29T07:31:17;19.39;83.84
47861;HTU21D;33620;52.340;5.984;2023-07-29T07:33:42;19.47;83.63
47861;HTU21D;33620;52.340;5.984;2023-07-29T07:36:08;19.51;83.08
47861;HTU21D;33620;52.340;5.984;2023-07-29T07:38:33;19.62;83.83
47861;HTU21D;33620;52.340;5.984;2023-07-29T07:40:59;19.68;83.61
47861;HTU21D;33620;52.340;5.984;2023-07-29T07:43:24;19.65;82.07
47861;HTU21D;33620;52.340;5.984;2023-07-29T07:45:51;19.69;81.76
47861;HTU21D;33620;52.340;5.984;2023-07-29T07:48:16;19.70;82.03
47861;HTU21D;33620;52.340;5.984;2023-07-29T07:50:42;19.67;82.13
47861;HTU21D;33620;52.340;5.984;2023-07-29T07:53:08;19.73;82.20
47861;HTU21D;33620;52.340;5.984;2023-07-29T07:55:33;19.77;81.81
47861;HTU21D;33620;52.340;5.984;2023-07-29T07:57:59;19.82;81.93
47861;HTU21D;33620;52.340;5.984;2023-07-29T08:00:24;19.83;81.72
47861;HTU21D;33620;52.340;5.984;2023-07-29T08:02:49;19.82;81.65
47861;HTU21D;33620;52.340;5.984;2023-07-29T08:05:15;19.94;82.25
47861;HTU21D;33620;52.340;5.984;2023-07-29T08:07:40;19.99;81.43
47861;HTU21D;33620;52.340;5.984;2023-07-29T08:10:06;20.03;81.27
47861;HTU21D;33620;52.340;5.984;2023-07-29T08:12:32;20.05;80.93
47861;HTU21D;33620;52.340;5.984;2023-07-29T08:14:57;20.04;81.01
47861;HTU21D;33620;52.340;5.984;2023-07-29T08:17:23;20.05;81.08
47861;HTU21D;33620;52.340;5.984;2023-07-29T08:19:48;20.07;81.03
47861;HTU21D;33620;52.340;5.984;2023-07-29T08:22:14;20.12;80.49
47861;HTU21D;33620;52.340;5.984;2023-07-29T08:24:39;20.18;80.84
47861;HTU21D;33620;52.340;5.984;2023-07-29T08:27:05;20.22;80.14
47861;HTU21D;33620;52.340;5.984;2023-07-29T08:29:30;20.31;80.75
47861;HTU21D;33620;52.340;5.984;2023-07-29T08:31:56;20.44;80.05
47861;HTU21D;33620;52.340;5.984;2023-07-29T08:34:21;20.63;80.30
47861;HTU21D;33620;52.340;5.984;2023-07-29T08:36:47;20.69;79.26
47861;HTU21D;33620;52.340;5.984;2023-07-29T08:39:12;20.59;78.03
47861;HTU21D;33620;52.340;5.984;2023-07-29T08:41:46;20.63;79.29
47861;HTU21D;33620;52.340;5.984;2023-07-29T08:44:22;20.69;79.30
47861;HTU21D;33620;52.340;5.984;2023-07-29T08:46:49;20.73;79.50
47861;HTU21D;33620;52.340;5.984;2023-07-29T08:49:15;20.70;79.24
47861;HTU21D;33620;52.340;5.984;2023-07-29T08:51:44;20.59;79.37
47861;HTU21D;33620;52.340;5.984;2023-07-29T08:54:10;20.51;78.81
47861;HTU21D;33620;52.340;5.984;2023-07-29T08:56:36;20.42;79.54
47861;HTU21D;33620;52.340;5.984;2023-07-29T08:59:02;20.49;80.33
47861;HTU21D;33620;52.340;5.984;2023-07-29T09:01:29;20.54;79.88
47861;HTU21D;33620;52.340;5.984;2023-07-29T09:03:56;20.61;79.72
47861;HTU21D;33620;52.340;5.984;2023-07-29T09:06:21;20.59;79.17
47861;HTU21D;33620;52.340;5.984;2023-07-29T09:08:49;20.60;79.12
47861;HTU21D;33620;52.340;5.984;2023-07-29T09:11:16;20.60;79.55
47861;HTU21D;33620;52.340;5.984;2023-07-29T09:13:42;20.60;79.22
47861;HTU21D;33620;52.340;5.984;2023-07-29T09:16:09;20.63;79.74
47861;HTU21D;33620;52.340;5.984;2023-07-29T09:18:34;20.68;80.17
47861;HTU21D;33620;52.340;5.984;2023-07-29T09:21:00;20.60;79.30
47861;HTU21D;33620;52.340;5.984;2023-07-29T09:23:41;20.51;78.70
47861;HTU21D;33620;52.340;5.984;2023-07-29T09:26:07;20.56;79.53
47861;HTU21D;33620;52.340;5.984;2023-07-29T09:28:39;20.57;79.26
47861;HTU21D;33620;52.340;5.984;2023-07-29T09:31:05;20.63;78.31
47861;HTU21D;33620;52.340;5.984;2023-07-29T09:33:35;20.65;79.77
47861;HTU21D;33620;52.340;5.984;2023-07-29T09:36:12;21.02;79.82
47861;HTU21D;33620;52.340;5.984;2023-07-29T09:38:37;21.22;79.05
47861;HTU21D;33620;52.340;5.984;2023-07-29T09:41:02;21.35;76.92
47861;HTU21D;33620;52.340;5.984;2023-07-29T09:43:33;21.39;77.62
47861;HTU21D;33620;52.340;5.984;2023-07-29T09:46:03;21.25;75.97
47861;HTU21D;33620;52.340;5.984;2023-07-29T09:48:33;21.22;74.65
47861;HTU21D;33620;52.340;5.984;2023-07-29T09:50:58;21.22;75.66
47861;HTU21D;33620;52.340;5.984;2023-07-29T09:53:24;21.33;76.36
47861;HTU21D;33620;52.340;5.984;2023-07-29T09:55:50;21.33;75.67
47861;HTU21D;33620;52.340;5.984;2023-07-29T09:58:19;21.47;76.37
47861;HTU21D;33620;52.340;5.984;2023-07-29T10:00:45;21.51;75.03
47861;HTU21D;33620;52.340;5.984;2023-07-29T10:03:12;21.52;76.30
47861;HTU21D;33620;52.340;5.984;2023-07-29T10:05:39;21.45;75.57
47861;HTU21D;33620;52.340;5.984;2023-07-29T10:08:05;21.32;75.71
47861;HTU21D;33620;52.340;5.984;2023-07-29T10:10:31;21.35;75.88
47861;HTU21D;33620;52.340;5.984;2023-07-29T10:12:56;21.28;75.15
47861;HTU21D;33620;52.340;5.984;2023-07-29T10:15:22;21.36;75.76
47861;HTU21D;33620;52.340;5.984;2023-07-29T10:17:48;21.43;74.27
47861;HTU21D;33620;52.340;5.984;2023-07-29T10:20:15;21.28;74.10
47861;HTU21D;33620;52.340;5.984;2023-07-29T10:22:41;21.28;73.32
47861;HTU21D;33620;52.340;5.984;2023-07-29T10:25:18;21.35;75.25
47861;HTU21D;33620;52.340;5.984;2023-07-29T10:28:04;21.45;75.11
47861;HTU21D;33620;52.340;5.984;2023-07-29T10:30:29;21.55;74.14
47861;HTU21D;33620;52.340;5.984;2023-07-29T10:32:58;21.90;74.38
47861;HTU21D;33620;52.340;5.984;2023-07-29T10:35:24;22.19;73.25
47861;HTU21D;33620;52.340;5.984;2023-07-29T10:37:50;22.14;71.00
47861;HTU21D;33620;52.340;5.984;2023-07-29T10:40:18;21.84;70.98
47861;HTU21D;33620;52.340;5.984;2023-07-29T10:43:11;21.78;71.32
47861;HTU21D;33620;52.340;5.984;2023-07-29T10:45:39;21.83;73.07
47861;HTU21D;33620;52.340;5.984;2023-07-29T10:48:11;21.82;73.31
47861;HTU21D;33620;52.340;5.984;2023-07-29T10:50:38;21.85;73.84
47861;HTU21D;33620;52.340;5.984;2023-07-29T10:53:04;21.63;72.41
47861;HTU21D;33620;52.340;5.984;2023-07-29T10:55:33;21.49;73.54
47861;HTU21D;33620;52.340;5.984;2023-07-29T10:58:12;21.47;74.25
47861;HTU21D;33620;52.340;5.984;2023-07-29T11:00:41;21.45;74.39
47861;HTU21D;33620;52.340;5.984;2023-07-29T11:03:07;21.40;75.45
47861;HTU21D;33620;52.340;5.984;2023-07-29T11:05:47;21.30;75.48
47861;HTU21D;33620;52.340;5.984;2023-07-29T11:08:27;21.44;75.09
47861;HTU21D;33620;52.340;5.984;2023-07-29T11:11:12;21.48;75.38
47861;HTU21D;33620;52.340;5.984;2023-07-29T11:13:38;21.49;73.96
47861;HTU21D;33620;52.340;5.984;2023-07-29T11:16:04;21.53;73.81
47861;HTU21D;33620;52.340;5.984;2023-07-29T11:18:32;21.62;73.67
47861;HTU21D;33620;52.340;5.984;2023-07-29T11:20:59;21.68;74.03
47861;HTU21D;33620;52.340;5.984;2023-07-29T11:23:29;21.50;72.61
47861;HTU21D;33620;52.340;5.984;2023-07-29T11:25:55;21.62;74.06
47861;HTU21D;33620;52.340;5.984;2023-07-29T11:28:21;21.59;73.86
47861;HTU21D;33620;52.340;5.984;2023-07-29T11:30:47;21.42;73.94
47861;HTU21D;33620;52.340;5.984;2023-07-29T11:33:16;21.39;75.15
47861;HTU21D;33620;52.340;5.984;2023-07-29T11:35:41;21.25;75.54
47861;HTU21D;33620;52.340;5.984;2023-07-29T11:38:07;21.05;77.53
47861;HTU21D;33620;52.340;5.984;2023-07-29T11:40:33;20.91;78.55
47861;HTU21D;33620;52.340;5.984;2023-07-29T11:42:58;20.92;79.81
47861;HTU21D;33620;52.340;5.984;2023-07-29T11:45:23;20.72;79.51
47861;HTU21D;33620;52.340;5.984;2023-07-29T11:47:49;20.79;80.13
47861;HTU21D;33620;52.340;5.984;2023-07-29T11:50:15;20.81;80.79
47861;HTU21D;33620;52.340;5.984;2023-07-29T11:52:42;20.93;81.68
47861;HTU21D;33620;52.340;5.984;2023-07-29T11:55:08;20.98;81.15
47861;HTU21D;33620;52.340;5.984;2023-07-29T11:57:35;21.18;81.26
47861;HTU21D;33620;52.340;5.984;2023-07-29T12:00:07;21.37;81.65
47861;HTU21D;33620;52.340;5.984;2023-07-29T12:02:36;21.30;79.60
47861;HTU21D;33620;52.340;5.984;2023-07-29T12:05:04;21.18;79.71
47861;HTU21D;33620;52.340;5.984;2023-07-29T12:07:29;21.16;79.55
47861;HTU21D;33620;52.340;5.984;2023-07-29T12:09:55;21.21;79.99
47861;HTU21D;33620;52.340;5.984;2023-07-29T12:12:22;21.28;79.96
47861;HTU21D;33620;52.340;5.984;2023-07-29T12:14:48;21.24;79.81
47861;HTU21D;33620;52.340;5.984;2023-07-29T12:17:13;21.22;79.85
47861;HTU21D;33620;52.340;5.984;2023-07-29T12:19:40;21.24;80.81
47861;HTU21D;33620;52.340;5.984;2023-07-29T12:22:07;21.24;80.58
47861;HTU21D;33620;52.340;5.984;2023-07-29T12:24:35;21.25;81.50
47861;HTU21D;33620;52.340;5.984;2023-07-29T12:27:01;21.30;81.69
47861;HTU21D;33620;52.340;5.984;2023-07-29T12:29:26;21.25;81.78
47861;HTU21D;33620;52.340;5.984;2023-07-29T12:32:03;21.18;81.79
47861;HTU21D;33620;52.340;5.984;2023-07-29T12:34:30;21.09;80.67
47861;HTU21D;33620;52.340;5.984;2023-07-29T12:36:57;21.02;82.08
47861;HTU21D;33620;52.340;5.984;2023-07-29T12:39:29;20.89;81.72
47861;HTU21D;33620;52.340;5.984;2023-07-29T12:41:56;20.95;80.03
47861;HTU21D;33620;52.340;5.984;2023-07-29T12:44:31;20.94;78.43
47861;HTU21D;33620;52.340;5.984;2023-07-29T12:46:56;21.04;77.11
47861;HTU21D;33620;52.340;5.984;2023-07-29T12:49:22;21.13;76.86
47861;HTU21D;33620;52.340;5.984;2023-07-29T12:51:47;21.33;78.43
47861;HTU21D;33620;52.340;5.984;2023-07-29T12:54:13;21.40;76.88
47861;HTU21D;33620;52.340;5.984;2023-07-29T12:56:39;21.55;77.26
47861;HTU21D;33620;52.340;5.984;2023-07-29T12:59:05;21.83;76.93
47861;HTU21D;33620;52.340;5.984;2023-07-29T13:01:30;22.06;76.25
47861;HTU21D;33620;52.340;5.984;2023-07-29T13:03:56;22.14;73.17
47861;HTU21D;33620;52.340;5.984;2023-07-29T13:06:22;22.35;71.99
47861;HTU21D;33620;52.340;5.984;2023-07-29T13:08:48;22.44;71.82
47861;HTU21D;33620;52.340;5.984;2023-07-29T13:11:17;22.43;70.83
47861;HTU21D;33620;52.340;5.984;2023-07-29T13:13:42;22.52;71.45
47861;HTU21D;33620;52.340;5.984;2023-07-29T13:16:08;22.42;71.29
47861;HTU21D;33620;52.340;5.984;2023-07-29T13:18:33;22.50;71.19
47861;HTU21D;33620;52.340;5.984;2023-07-29T13:20:59;22.48;70.00
47861;HTU21D;33620;52.340;5.984;2023-07-29T13:23:25;22.60;70.39
47861;HTU21D;33620;52.340;5.984;2023-07-29T13:25:51;22.61;70.56
47861;HTU21D;33620;52.340;5.984;2023-07-29T13:28:16;22.72;72.32
47861;HTU21D;33620;52.340;5.984;2023-07-29T13:30:42;22.71;71.37
47861;HTU21D;33620;52.340;5.984;2023-07-29T13:33:07;22.62;71.94
47861;HTU21D;33620;52.340;5.984;2023-07-29T13:35:33;22.56;71.90
47861;HTU21D;33620;52.340;5.984;2023-07-29T13:38:02;22.55;71.91
47861;HTU21D;33620;52.340;5.984;2023-07-29T13:40:28;22.43;71.84
47861;HTU21D;33620;52.340;5.984;2023-07-29T13:42:54;22.69;71.07
47861;HTU21D;33620;52.340;5.984;2023-07-29T13:45:20;22.99;73.00
47861;HTU21D;33620;52.340;5.984;2023-07-29T13:47:45;23.12;72.01
47861;HTU21D;33620;52.340;5.984;2023-07-29T13:50:10;23.25;71.60
47861;HTU21D;33620;52.340;5.984;2023-07-29T13:52:37;23.12;68.67
47861;HTU21D;33620;52.340;5.984;2023-07-29T13:55:03;23.13;70.33
47861;HTU21D;33620;52.340;5.984;2023-07-29T13:57:29;22.98;69.33
47861;HTU21D;33620;52.340;5.984;2023-07-29T13:59:54;22.78;68.46
47861;HTU21D;33620;52.340;5.984;2023-07-29T14:02:20;22.70;69.76
47861;HTU21D;33620;52.340;5.984;2023-07-29T14:04:45;22.64;69.70
47861;HTU21D;33620;52.340;5.984;2023-07-29T14:07:11;22.60;70.38
47861;HTU21D;33620;52.340;5.984;2023-07-29T14:09:36;22.56;71.66
47861;HTU21D;33620;52.340;5.984;2023-07-29T14:12:03;22.53;71.46
47861;HTU21D;33620;52.340;5.984;2023-07-29T14:14:29;22.49;70.64
47861;HTU21D;33620;52.340;5.984;2023-07-29T14:16:55;22.37;70.26
47861;HTU21D;33620;52.340;5.984;2023-07-29T14:19:20;22.25;71.28
47861;HTU21D;33620;52.340;5.984;2023-07-29T14:21:46;22.47;71.23
47861;HTU21D;33620;52.340;5.984;2023-07-29T14:24:11;22.73;72.50
47861;HTU21D;33620;52.340;5.984;2023-07-29T14:26:36;23.08;70.87
47861;HTU21D;33620;52.340;5.984;2023-07-29T14:29:02;23.24;69.90
47861;HTU21D;33620;52.340;5.984;2023-07-29T14:31:27;23.42;69.99
47861;HTU21D;33620;52.340;5.984;2023-07-29T14:33:52;23.45;69.57
47861;HTU21D;33620;52.340;5.984;2023-07-29T14:36:18;23.27;68.62
47861;HTU21D;33620;52.340;5.984;2023-07-29T14:38:43;23.24;68.87
47861;HTU21D;33620;52.340;5.984;2023-07-29T14:41:09;23.15;69.79
47861;HTU21D;33620;52.340;5.984;2023-07-29T14:43:35;23.03;69.36
47861;HTU21D;33620;52.340;5.984;2023-07-29T14:46:01;23.14;70.34
47861;HTU21D;33620;52.340;5.984;2023-07-29T14:48:26;23.26;71.34
47861;HTU21D;33620;52.340;5.984;2023-07-29T14:50:52;23.36;69.62
47861;HTU21D;33620;52.340;5.984;2023-07-29T14:53:18;23.38;69.68
47861;HTU21D;33620;52.340;5.984;2023-07-29T14:55:43;23.56;70.42
47861;HTU21D;33620;52.340;5.984;2023-07-29T14:58:08;23.50;68.73
47861;HTU21D;33620;52.340;5.984;2023-07-29T15:00:34;23.41;69.03
47861;HTU21D;33620;52.340;5.984;2023-07-29T15:02:59;23.39;70.76
47861;HTU21D;33620;52.340;5.984;2023-07-29T15:05:25;23.47;69.14
47861;HTU21D;33620;52.340;5.984;2023-07-29T15:07:50;23.55;68.39
47861;HTU21D;33620;52.340;5.984;2023-07-29T15:10:16;23.70;70.18
47861;HTU21D;33620;52.340;5.984;2023-07-29T15:12:43;23.81;68.17